createdAt,value
2019-02-26T00:00:46.961Z,7.87
2019-02-26T00:03:52.823Z,2.40
2019-02-26T00:07:01.528Z,2.57
2019-02-26T00:10:08.939Z,1.43
2019-02-26T00:13:15.382Z,1.20
2019-02-26T00:16:21.826Z,4.30
2019-02-26T00:19:28.286Z,3.17
2019-02-26T00:22:36.654Z,9.23
2019-02-26T00:25:42.678Z,1.33
2019-02-26T00:28:49.098Z,1.20
2019-02-26T00:31:57.761Z,4.20
2019-02-26T00:35:04.393Z,4.97
2019-02-26T00:38:12.877Z,6.80
2019-02-26T00:41:20.741Z,3.63
2019-02-26T00:44:29.724Z,2.80
2019-02-26T00:47:36.355Z,0.90
2019-02-26T00:50:43.249Z,2.70
2019-02-26T00:53:52.809Z,2.53
2019-02-26T00:57:01.038Z,0.93
2019-02-26T01:00:09.802Z,2.53
2019-02-26T01:03:15.918Z,2.73
2019-02-26T01:06:23.052Z,4.60
2019-02-26T01:09:31.904Z,4.23
2019-02-26T01:12:40.293Z,1.70
2019-02-26T01:15:46.785Z,3.43
2019-02-26T01:18:53.320Z,0.80
2019-02-26T01:21:59.764Z,4.00
2019-02-26T01:25:06.497Z,0.93
2019-02-26T01:28:16.054Z,1.60
2019-02-26T01:31:22.489Z,2.63
2019-02-26T01:34:29.701Z,1.83
2019-02-26T01:37:36.702Z,3.27
2019-02-26T01:40:44.200Z,1.57
2019-02-26T01:43:51.390Z,2.67
2019-02-26T01:46:58.275Z,1.10
2019-02-26T01:50:09.327Z,3.13
2019-02-26T01:53:17.510Z,3.77
2019-02-26T01:56:23.916Z,2.27
2019-02-26T01:59:31.754Z,3.27
2019-02-26T02:02:38.514Z,3.53
2019-02-26T02:05:47.949Z,2.73
2019-02-26T02:08:55.728Z,1.87
2019-02-26T02:12:04.146Z,3.17
2019-02-26T02:15:12.371Z,1.63
2019-02-26T02:18:20.576Z,1.10
2019-02-26T02:21:30.447Z,1.03
2019-02-26T02:24:38.970Z,2.95
2019-02-26T02:27:47.672Z,1.57
2019-02-26T02:30:51.484Z,8.13
2019-02-26T02:33:57.985Z,2.37
2019-02-26T02:37:04.866Z,1.20
2019-02-26T02:40:11.497Z,1.47
2019-02-26T02:43:20.373Z,2.60
2019-02-26T02:46:26.066Z,1.20
2019-02-26T02:49:33.847Z,1.20
2019-02-26T02:52:40.596Z,1.30
2019-02-26T02:56:06.349Z,1.70
2019-02-26T02:59:14.105Z,2.70
2019-02-26T03:02:23.021Z,2.12
2019-02-26T03:05:32.108Z,1.63
2019-02-26T03:08:39.447Z,2.93
2019-02-26T03:11:46.479Z,2.63
2019-02-26T03:14:56.232Z,1.00
2019-02-26T03:18:04.141Z,8.40
2019-02-26T03:21:10.742Z,2.07
2019-02-26T03:24:17.131Z,4.77
2019-02-26T03:27:23.540Z,1.22
2019-02-26T03:30:33.995Z,1.20
2019-02-26T03:33:38.302Z,1.10
2019-02-26T03:36:45.718Z,1.83
2019-02-26T03:39:54.747Z,4.37
2019-02-26T03:43:04.415Z,1.80
2019-02-26T03:46:10.065Z,1.20
2019-02-26T03:49:16.509Z,1.77
2019-02-26T03:52:23.048Z,1.00
2019-02-26T03:55:31.711Z,3.80
2019-02-26T03:58:37.672Z,1.20
2019-02-26T04:01:44.111Z,3.30
2019-02-26T04:04:54.001Z,0.90
2019-02-26T04:08:01.001Z,3.60
2019-02-26T04:11:06.871Z,4.20
2019-02-26T04:14:17.369Z,1.20
2019-02-26T04:17:25.408Z,1.47
2019-02-26T04:20:29.874Z,5.67
2019-02-26T04:23:38.945Z,1.13
2019-02-26T04:27:13.922Z,0.90
2019-02-26T04:30:47.188Z,2.47
2019-02-26T04:34:08.579Z,1.10
2019-02-26T04:38:00.926Z,1.97
2019-02-26T04:41:32.539Z,2.50
2019-02-26T04:45:09.297Z,2.12
2019-02-26T04:48:19.361Z,1.63
2019-02-26T04:51:24.114Z,1.37
2019-02-26T04:54:33.660Z,1.37
2019-02-26T04:57:42.159Z,4.53
2019-02-26T05:00:47.492Z,1.23
2019-02-26T05:03:53.884Z,1.13
2019-02-26T05:07:04.417Z,4.10
2019-02-26T05:10:08.267Z,2.73
2019-02-26T05:13:14.655Z,2.83
2019-02-26T05:16:21.033Z,5.17
2019-02-26T05:19:27.514Z,1.70
2019-02-26T05:22:34.208Z,2.30
2019-02-26T05:25:42.977Z,5.70
2019-02-26T05:28:49.657Z,3.77
2019-02-26T05:31:58.853Z,11.63
2019-02-26T05:35:05.036Z,1.87
2019-02-26T05:38:11.511Z,2.87
2019-02-26T05:41:19.635Z,1.90
2019-02-26T05:44:25.882Z,3.20
2019-02-26T05:47:32.456Z,1.43
2019-02-26T05:50:42.160Z,3.57
2019-02-26T05:53:48.248Z,1.13
2019-02-26T05:56:54.515Z,8.00
2019-02-26T06:00:01.251Z,7.13
2019-02-26T06:03:09.683Z,5.23
2019-02-26T06:06:16.103Z,1.90
2019-02-26T06:09:26.123Z,8.30
2019-02-26T06:12:32.646Z,2.73
2019-02-26T06:15:39.677Z,8.10
2019-02-26T06:18:46.948Z,6.30
2019-02-26T06:21:56.465Z,8.60
2019-02-26T06:25:04.070Z,2.50
2019-02-26T06:28:12.692Z,3.73
2019-02-26T06:31:19.875Z,2.33
2019-02-26T06:34:26.595Z,6.53
2019-02-26T06:37:35.426Z,4.17
2019-02-26T06:40:42.333Z,3.20
2019-02-26T06:43:50.373Z,2.87
2019-02-26T06:46:59.871Z,8.43
2019-02-26T06:50:08.051Z,5.83
2019-02-26T06:53:16.656Z,9.17
2019-02-26T06:56:23.278Z,4.20
2019-02-26T06:59:32.484Z,7.70
2019-02-26T07:02:38.903Z,7.63
2019-02-26T07:05:46.585Z,1.23
2019-02-26T07:08:53.492Z,2.90
2019-02-26T07:12:00.003Z,5.47
2019-02-26T07:15:11.691Z,3.33
2019-02-26T07:18:19.079Z,5.87
2019-02-26T07:21:24.762Z,3.40
2019-02-26T07:24:31.064Z,3.90
2019-02-26T07:27:38.440Z,14.77
2019-02-26T07:30:46.803Z,5.30
2019-02-26T07:33:54.033Z,7.80
2019-02-26T07:37:01.078Z,12.80
2019-02-26T07:40:08.811Z,6.37
2019-02-26T07:43:17.960Z,8.40
2019-02-26T07:46:24.405Z,12.17
2019-02-26T07:49:30.740Z,6.57
2019-02-26T07:52:37.871Z,14.40
2019-02-26T07:55:44.344Z,7.53
2019-02-26T07:58:50.736Z,4.63
2019-02-26T08:01:58.031Z,8.37
2019-02-26T08:05:04.592Z,6.83
2019-02-26T08:08:12.002Z,4.27
2019-02-26T08:11:19.261Z,2.03
2019-02-26T08:14:25.780Z,9.30
2019-02-26T08:17:33.283Z,5.17
2019-02-26T08:20:40.297Z,5.63
2019-02-26T08:23:48.316Z,6.90
2019-02-26T08:26:56.172Z,9.77
2019-02-26T08:30:02.620Z,10.33
2019-02-26T08:33:10.780Z,13.53
2019-02-26T08:36:17.305Z,15.70
2019-02-26T08:39:23.680Z,13.07
2019-02-26T08:42:30.094Z,10.57
2019-02-26T08:45:36.578Z,5.53
2019-02-26T08:48:45.897Z,8.70
2019-02-26T08:51:51.686Z,16.33
2019-02-26T08:54:58.359Z,7.90
2019-02-26T08:58:04.852Z,14.30
2019-02-26T09:01:11.334Z,7.20
2019-02-26T09:04:21.056Z,10.20
2019-02-26T09:07:26.319Z,10.15
2019-02-26T09:10:32.891Z,5.00
2019-02-26T09:13:41.052Z,19.53
2019-02-26T09:16:51.877Z,5.17
2019-02-26T09:20:08.298Z,12.28
2019-02-26T09:23:04.893Z,11.73
2019-02-26T09:26:11.816Z,3.00
2019-02-26T09:29:19.763Z,13.00
2019-02-26T09:32:28.241Z,22.82
2019-02-26T09:35:34.702Z,8.97
2019-02-26T09:38:41.965Z,9.83
2019-02-26T09:41:49.105Z,13.50
2019-02-26T09:44:57.749Z,6.55
2019-02-26T09:48:04.848Z,32.97
2019-02-26T09:51:12.440Z,29.60
2019-02-26T09:54:20.859Z,15.60
2019-02-26T09:57:28.325Z,11.95
2019-02-26T10:00:34.713Z,11.10
2019-02-26T10:03:41.498Z,22.90
2019-02-26T10:06:48.003Z,15.03
2019-02-26T10:09:54.413Z,14.70
2019-02-26T10:13:04.551Z,5.97
2019-02-26T10:16:10.052Z,26.37
2019-02-26T10:19:17.224Z,5.97
2019-02-26T10:22:26.138Z,8.20
2019-02-26T10:25:34.932Z,11.20
2019-02-26T10:28:42.727Z,5.83
2019-02-26T10:31:48.987Z,10.90
2019-02-26T10:34:55.381Z,18.70
2019-02-26T10:38:03.646Z,30.73
2019-02-26T10:41:10.052Z,9.97
2019-02-26T10:44:16.318Z,20.87
2019-02-26T10:47:24.603Z,32.10
2019-02-26T10:50:31.955Z,7.33
2019-02-26T10:53:38.729Z,9.63
2019-02-26T10:56:45.068Z,7.13
2019-02-26T10:59:51.789Z,6.25
2019-02-26T11:02:58.271Z,13.05
2019-02-26T11:06:07.138Z,2.43
2019-02-26T11:09:17.340Z,9.78
2019-02-26T11:12:22.824Z,6.33
2019-02-26T11:15:31.163Z,5.03
2019-02-26T11:18:39.871Z,4.85
2019-02-26T11:21:47.521Z,11.90
2019-02-26T11:24:56.111Z,8.03
2019-02-26T11:28:02.430Z,5.47
2019-02-26T11:31:12.197Z,4.27
2019-02-26T11:34:18.003Z,12.47
2019-02-26T11:37:25.272Z,8.38
2019-02-26T11:40:32.642Z,3.90
2019-02-26T11:43:38.942Z,4.60
2019-02-26T11:46:46.762Z,3.20
2019-02-26T11:49:53.457Z,5.87
2019-02-26T11:53:00.240Z,4.47
2019-02-26T11:56:07.036Z,7.20
2019-02-26T11:59:14.847Z,7.33
2019-02-26T12:02:26.224Z,4.17
2019-02-26T12:05:33.550Z,6.40
2019-02-26T12:08:40.591Z,6.37
2019-02-26T12:11:46.943Z,2.30
2019-02-26T12:14:53.310Z,4.53
2019-02-26T12:17:59.749Z,10.73
2019-02-26T12:21:08.039Z,5.23
2019-02-26T12:24:14.311Z,4.83
2019-02-26T12:27:23.642Z,33.33
2019-02-26T12:30:28.949Z,8.33
2019-02-26T12:33:35.288Z,12.93
2019-02-26T12:36:41.554Z,5.40
2019-02-26T12:39:49.951Z,8.13
2019-02-26T12:42:56.234Z,9.93
2019-02-26T12:46:04.774Z,7.33
2019-02-26T12:49:12.669Z,6.40
2019-02-26T12:52:21.931Z,9.53
2019-02-26T12:55:29.608Z,6.73
2019-02-26T12:58:38.166Z,2.57
2019-02-26T13:01:46.821Z,6.93
2019-02-26T13:04:53.865Z,3.83
2019-02-26T13:08:00.262Z,10.03
2019-02-26T13:11:06.693Z,2.87
2019-02-26T13:14:12.973Z,8.20
2019-02-26T13:17:21.026Z,9.65
2019-02-26T13:20:27.476Z,3.37
2019-02-26T13:23:34.075Z,2.53
2019-02-26T13:26:46.209Z,7.90
2019-02-26T13:29:54.551Z,7.47
2019-02-26T13:33:00.049Z,3.67
2019-02-26T13:36:05.123Z,9.40
2019-02-26T13:39:11.454Z,4.17
2019-02-26T13:42:19.292Z,8.70
2019-02-26T13:45:26.494Z,16.77
2019-02-26T13:48:32.942Z,14.53
2019-02-26T13:51:39.384Z,16.47
2019-02-26T13:54:45.754Z,13.10
2019-02-26T13:57:52.150Z,8.80
2019-02-26T14:01:00.031Z,8.20
2019-02-26T14:04:06.385Z,8.53
2019-02-26T14:07:13.155Z,1.87
2019-02-26T14:10:19.591Z,12.03
2019-02-26T14:13:26.100Z,3.10
2019-02-26T14:16:32.743Z,6.37
2019-02-26T14:19:39.387Z,4.43
2019-02-26T14:22:45.828Z,4.90
2019-02-26T14:25:52.328Z,2.63
2019-02-26T14:28:58.709Z,10.33
2019-02-26T14:32:05.127Z,4.37
2019-02-26T14:35:11.956Z,5.77
2019-02-26T14:38:18.618Z,5.37
2019-02-26T14:41:25.001Z,8.90
2019-02-26T14:44:31.486Z,3.60
2019-02-26T14:47:37.994Z,7.40
2019-02-26T14:50:44.344Z,10.27
2019-02-26T14:53:50.667Z,7.23
2019-02-26T14:56:57.082Z,4.80
2019-02-26T15:00:03.783Z,5.00
2019-02-26T15:03:12.125Z,8.73
2019-02-26T15:06:18.488Z,5.53
2019-02-26T15:09:25.963Z,8.63
2019-02-26T15:12:32.459Z,4.13
2019-02-26T15:15:39.010Z,5.50
2019-02-26T15:18:45.283Z,8.40
2019-02-26T15:21:51.640Z,6.37
2019-02-26T15:24:58.080Z,5.15
2019-02-26T15:28:05.587Z,10.53
2019-02-26T15:31:11.994Z,9.33
2019-02-26T15:34:18.311Z,5.07
2019-02-26T15:37:24.788Z,8.30
2019-02-26T15:40:31.258Z,10.67
2019-02-26T15:43:37.526Z,5.37
2019-02-26T15:46:43.964Z,10.60
2019-02-26T15:49:50.369Z,11.15
2019-02-26T15:52:56.822Z,10.73
2019-02-26T15:56:03.243Z,15.20
2019-02-26T15:59:09.526Z,10.47
2019-02-26T16:02:16.125Z,18.62
2019-02-26T16:05:24.391Z,9.27
2019-02-26T16:08:34.541Z,15.70
2019-02-26T16:11:38.973Z,20.57
2019-02-26T16:14:45.380Z,11.90
2019-02-26T16:17:51.671Z,15.83
2019-02-26T16:20:57.964Z,23.83
2019-02-26T16:24:04.332Z,57.07
2019-02-26T16:27:10.783Z,35.27
2019-02-26T16:30:19.005Z,70.97
2019-02-26T16:33:25.369Z,43.63
2019-02-26T16:36:32.255Z,24.43
2019-02-26T16:39:39.324Z,49.13
2019-02-26T16:42:46.459Z,34.67
2019-02-26T16:45:52.902Z,32.67
2019-02-26T16:49:01.077Z,25.13
2019-02-26T16:52:07.748Z,37.83
2019-02-26T16:55:17.117Z,47.73
2019-02-26T16:58:22.534Z,32.63
2019-02-26T17:01:29.045Z,43.37
2019-02-26T17:04:35.439Z,46.23
2019-02-26T17:07:42.352Z,21.47
2019-02-26T17:10:49.317Z,44.87
2019-02-26T17:13:55.948Z,44.80
2019-02-26T17:17:03.944Z,56.20
2019-02-26T17:20:10.562Z,29.10
2019-02-26T17:23:17.223Z,24.43
2019-02-26T17:26:23.539Z,30.33
2019-02-26T17:29:29.958Z,37.77
2019-02-26T17:32:38.085Z,55.03
2019-02-26T17:35:44.423Z,47.67
2019-02-26T17:38:51.760Z,37.57
2019-02-26T17:41:58.651Z,55.03
2019-02-26T17:45:05.881Z,44.10
2019-02-26T17:48:12.275Z,49.50
2019-02-26T17:51:19.483Z,42.63
2019-02-26T17:54:25.912Z,36.17
2019-02-26T17:57:34.632Z,53.47
2019-02-26T18:00:42.690Z,37.23
2019-02-26T18:03:49.044Z,28.17
2019-02-26T18:06:57.816Z,35.07
2019-02-26T18:10:04.443Z,50.57
2019-02-26T18:13:10.911Z,39.53
2019-02-26T18:16:25.745Z,39.50
2019-02-26T18:19:33.781Z,29.10
2019-02-26T18:22:40.213Z,44.33
2019-02-26T18:25:46.636Z,24.30
2019-02-26T18:28:53.219Z,34.83
2019-02-26T18:32:01.150Z,28.17
2019-02-26T18:35:07.897Z,32.70
2019-02-26T18:38:14.415Z,18.23
2019-02-26T18:41:21.126Z,13.97
2019-02-26T18:44:27.580Z,13.47
2019-02-26T18:47:33.944Z,19.17
2019-02-26T18:50:40.691Z,22.27
2019-02-26T18:53:47.981Z,28.63
2019-02-26T18:56:55.400Z,28.03
2019-02-26T19:00:01.691Z,29.77
2019-02-26T19:03:09.577Z,26.13
2019-02-26T19:06:15.926Z,32.03
2019-02-26T19:09:22.400Z,22.10
2019-02-26T19:12:30.642Z,44.50
2019-02-26T19:15:37.556Z,37.93
2019-02-26T19:18:44.116Z,24.80
2019-02-26T19:21:53.974Z,36.17
2019-02-26T19:24:59.833Z,27.80
2019-02-26T19:28:06.201Z,25.23
2019-02-26T19:31:12.778Z,19.33
2019-02-26T19:34:19.291Z,27.05
2019-02-26T19:37:25.711Z,23.75
2019-02-26T19:40:39.042Z,13.40
2019-02-26T19:43:45.559Z,19.30
2019-02-26T19:46:53.031Z,12.13
2019-02-26T19:49:59.615Z,8.40
2019-02-26T19:53:05.870Z,15.10
2019-02-26T19:56:12.176Z,10.63
2019-02-26T19:59:18.621Z,7.80
2019-02-26T20:02:25.099Z,9.57
2019-02-26T20:05:31.469Z,5.80
2019-02-26T20:08:38.876Z,7.40
2019-02-26T20:11:45.263Z,15.53
2019-02-26T20:14:52.073Z,8.58
2019-02-26T20:17:58.503Z,10.13
2019-02-26T20:21:04.975Z,5.70
2019-02-26T20:24:11.657Z,6.40
2019-02-26T20:27:26.937Z,17.05
2019-02-26T20:30:33.213Z,13.23
2019-02-26T20:33:40.694Z,19.67
2019-02-26T20:36:48.801Z,14.47
2019-02-26T20:39:55.299Z,8.80
2019-02-26T20:43:02.007Z,9.40
2019-02-26T20:46:10.223Z,7.07
2019-02-26T20:49:16.823Z,12.67
2019-02-26T20:52:24.354Z,6.22
2019-02-26T20:55:30.728Z,9.60
2019-02-26T20:58:37.135Z,2.90
2019-02-26T21:01:43.485Z,4.00
2019-02-26T21:04:50.028Z,4.17
2019-02-26T21:07:58.827Z,6.53
2019-02-26T21:11:04.544Z,9.77
2019-02-26T21:14:11.011Z,2.73
2019-02-26T21:17:18.469Z,5.47
2019-02-26T21:20:24.802Z,4.97
2019-02-26T21:23:32.560Z,4.67
2019-02-26T21:26:39.143Z,7.70
2019-02-26T21:29:45.595Z,2.80
2019-02-26T21:32:51.941Z,2.23
2019-02-26T21:35:58.336Z,1.93
2019-02-26T21:39:06.370Z,6.43
2019-02-26T21:42:14.352Z,5.28
2019-02-26T21:45:20.672Z,2.50
2019-02-26T21:48:27.036Z,5.63
2019-02-26T21:51:34.398Z,5.10
2019-02-26T21:54:40.954Z,6.77
2019-02-26T21:57:47.286Z,4.80
2019-02-26T22:00:54.522Z,6.47
2019-02-26T22:04:00.846Z,1.77
2019-02-26T22:07:07.220Z,4.20
2019-02-26T22:10:14.238Z,7.47
2019-02-26T22:13:20.520Z,1.77
2019-02-26T22:16:26.931Z,5.03
2019-02-26T22:19:33.659Z,2.27
2019-02-26T22:22:40.235Z,4.27
2019-02-26T22:25:46.773Z,3.13
2019-02-26T22:28:53.659Z,4.93
2019-02-26T22:32:02.387Z,1.83
2019-02-26T22:35:08.778Z,2.87
2019-02-26T22:38:16.109Z,5.07
2019-02-26T22:41:22.387Z,5.00
2019-02-26T22:44:28.706Z,1.43
2019-02-26T22:47:35.029Z,5.20
2019-02-26T22:50:41.298Z,2.07
2019-02-26T22:53:47.590Z,3.13
2019-02-26T22:56:56.786Z,2.67
2019-02-26T23:00:03.486Z,8.43
2019-02-26T23:03:12.868Z,3.63
2019-02-26T23:06:19.852Z,3.70
2019-02-26T23:09:28.686Z,3.53
2019-02-26T23:12:35.188Z,1.97
2019-02-26T23:15:45.030Z,2.47
2019-02-26T23:18:50.317Z,2.77
2019-02-26T23:21:57.016Z,4.87
2019-02-26T23:25:03.397Z,4.73
2019-02-26T23:28:10.135Z,6.00
2019-02-26T23:31:17.789Z,2.87
2019-02-26T23:34:24.224Z,4.30
2019-02-26T23:37:34.312Z,2.13
2019-02-26T23:40:38.949Z,1.63
2019-02-26T23:43:46.058Z,2.37
2019-02-26T23:46:52.492Z,1.80
2019-02-26T23:49:58.744Z,2.22
2019-02-26T23:53:05.721Z,1.90
2019-02-26T23:56:12.049Z,3.67
2019-02-26T23:59:18.689Z,3.87
